Time;durP1;ratioP1;P1;durP2;ratioP2;P2;SDS_P1;SDS_P2;PMS_P1;PMS_P2;Temp;Humidity;BMP_temperature;BMP_pressure;BME280_temperature;BME280_humidity;BME280_pressure;Samples;Min_cycle;Max_cycle;Signal;HPM_P1;HPM_P2
2024/02/23 00:00:31;;;;;;;0.80;0.50;;;;;;;-146.29;100.00;59205.81;5024933;28;20207;-71
2024/02/23 00:02:57;;;;;;;1.40;0.67;;;;;;;-146.29;100.00;59205.81;5030379;28;21002;-73
2024/02/23 00:05:23;;;;;;;0.80;0.50;;;;;;;-146.29;100.00;59205.81;5028232;28;20260;-70
2024/02/23 00:07:49;;;;;;;0.70;0.50;;;;;;;-146.29;100.00;59205.81;5032179;28;20506;-71
2024/02/23 00:10:15;;;;;;;1.00;0.50;;;;;;;-146.29;100.00;59205.81;5028924;28;20846;-70
2024/02/23 00:12:41;;;;;;;1.73;0.50;;;;;;;-146.29;100.00;59205.81;5026957;28;20239;-70
2024/02/23 00:15:07;;;;;;;0.90;0.60;;;;;;;-146.29;100.00;59205.81;5030867;28;20366;-73
2024/02/23 00:17:32;;;;;;;0.80;0.50;;;;;;;-146.29;100.00;59205.81;5034332;28;20509;-73
2024/02/23 00:19:58;;;;;;;1.23;0.50;;;;;;;-146.29;100.00;59205.81;5030190;28;20244;-73
2024/02/23 00:22:25;;;;;;;4.50;0.53;;;;;;;-146.29;100.00;59205.81;5030701;28;20215;-72
2024/02/23 00:24:51;;;;;;;0.80;0.50;;;;;;;-146.29;100.00;59205.81;5026635;28;20186;-71
2024/02/23 00:27:16;;;;;;;0.90;0.70;;;;;;;-146.29;100.00;59205.81;5026742;28;20936;-71
2024/02/23 00:29:41;;;;;;;1.00;0.63;;;;;;;-146.29;100.00;59205.81;5031635;28;20295;-72
2024/02/23 00:32:07;;;;;;;0.93;0.60;;;;;;;-146.29;100.00;59205.81;5027186;28;20602;-75
2024/02/23 00:34:32;;;;;;;0.80;0.50;;;;;;;-146.29;100.00;59205.81;5032139;28;20275;-73
2024/02/23 00:36:58;;;;;;;0.80;0.50;;;;;;;-146.29;100.00;59205.81;5026977;28;20262;-71
2024/02/23 00:39:23;;;;;;;0.97;0.50;;;;;;;-146.29;100.00;59205.81;5026072;28;20188;-72
2024/02/23 00:41:49;;;;;;;0.80;0.50;;;;;;;-146.29;100.00;59205.81;5026596;28;20203;-72
2024/02/23 00:44:14;;;;;;;0.87;0.50;;;;;;;-146.29;100.00;59205.81;5028473;28;20193;-73
2024/02/23 00:46:40;;;;;;;1.17;0.60;;;;;;;-146.29;100.00;59205.81;5039763;28;20217;-71
2024/02/23 00:49:05;;;;;;;1.47;0.60;;;;;;;-146.29;100.00;59205.81;5030961;28;20287;-73
2024/02/23 00:51:31;;;;;;;2.90;0.60;;;;;;;-146.29;100.00;59205.81;5028231;28;20285;-72
2024/02/23 00:53:56;;;;;;;1.30;0.60;;;;;;;-146.29;100.00;59205.81;5031937;28;20203;-71
2024/02/23 00:56:22;;;;;;;2.80;0.70;;;;;;;-146.29;100.00;59205.81;5025924;28;20611;-73
2024/02/23 00:58:47;;;;;;;0.90;0.60;;;;;;;-146.29;100.00;59205.81;5028560;28;20180;-72
2024/02/23 01:01:13;;;;;;;5.47;0.87;;;;;;;-146.29;100.00;59205.81;5032818;28;20194;-72
2024/02/23 01:03:39;;;;;;;2.90;0.70;;;;;;;-146.29;100.00;59205.81;5008417;28;20209;-72
2024/02/23 01:06:04;;;;;;;1.47;0.80;;;;;;;-146.29;100.00;59205.81;5032881;28;20282;-71
2024/02/23 01:08:29;;;;;;;1.47;0.80;;;;;;;-146.29;100.00;59205.81;5031837;28;20191;-73
2024/02/23 01:10:55;;;;;;;1.77;0.77;;;;;;;-146.29;100.00;59205.81;5033873;28;20600;-72
2024/02/23 01:13:20;;;;;;;2.27;0.80;;;;;;;-146.29;100.00;59205.81;5030940;28;20212;-72
2024/02/23 01:15:46;;;;;;;0.90;0.60;;;;;;;-146.29;100.00;59205.81;5030788;28;20183;-73
2024/02/23 01:18:12;;;;;;;2.07;0.80;;;;;;;-146.29;100.00;59205.81;5029165;28;20184;-72
2024/02/23 01:20:37;;;;;;;5.53;0.70;;;;;;;-146.29;100.00;59205.81;5029170;28;20560;-72
2024/02/23 01:23:03;;;;;;;2.60;0.80;;;;;;;-146.29;100.00;59205.81;5036046;28;20294;-72
2024/02/23 01:25:28;;;;;;;1.77;0.70;;;;;;;-146.29;100.00;59205.81;5029251;28;20206;-72
2024/02/23 01:27:53;;;;;;;2.90;0.90;;;;;;;-146.29;100.00;59205.81;5038294;28;20254;-71
2024/02/23 01:30:19;;;;;;;2.53;0.80;;;;;;;-146.29;100.00;59205.81;5036374;28;20272;-71
2024/02/23 01:32:45;;;;;;;1.40;0.80;;;;;;;-146.29;100.00;59205.81;5039153;28;20807;-72
2024/02/23 01:35:11;;;;;;;2.57;0.90;;;;;;;-146.29;100.00;59205.81;5029859;28;20534;-71
2024/02/23 01:37:36;;;;;;;4.43;0.90;;;;;;;-146.29;100.00;59205.81;5030797;28;20463;-73
2024/02/23 01:40:02;;;;;;;4.40;0.90;;;;;;;-146.29;100.00;59205.81;5036804;28;20728;-72
2024/02/23 01:42:28;;;;;;;3.27;1.00;;;;;;;-146.29;100.00;59205.81;5029081;28;20196;-72
2024/02/23 01:44:55;;;;;;;3.20;1.10;;;;;;;-146.29;100.00;59205.81;5035252;28;20516;-72
2024/02/23 01:47:21;;;;;;;3.13;0.80;;;;;;;-146.29;100.00;59205.81;5030104;28;20977;-72
2024/02/23 01:49:47;;;;;;;1.97;0.87;;;;;;;-146.29;100.00;59205.81;5037512;28;20419;-69
2024/02/23 01:52:13;;;;;;;3.77;0.90;;;;;;;-146.29;100.00;59205.81;5030047;28;20580;-68
2024/02/23 01:54:38;;;;;;;2.03;0.67;;;;;;;-146.29;100.00;59205.81;5032571;28;20747;-69
2024/02/23 01:57:04;;;;;;;2.50;0.67;;;;;;;-146.29;100.00;59205.81;5030617;28;20426;-68
2024/02/23 01:59:29;;;;;;;4.80;1.20;;;;;;;-146.29;100.00;59205.81;5030881;28;20183;-68
2024/02/23 02:01:55;;;;;;;3.73;1.10;;;;;;;-146.29;100.00;59205.81;5030991;28;20283;-68
2024/02/23 02:04:21;;;;;;;4.50;0.90;;;;;;;-146.29;100.00;59205.81;5037560;28;20256;-68
2024/02/23 02:06:47;;;;;;;1.00;0.77;;;;;;;-146.29;100.00;59205.81;5033928;28;20414;-69
2024/02/23 02:09:13;;;;;;;2.90;0.80;;;;;;;-146.29;100.00;59205.81;5031213;28;20186;-70
2024/02/23 02:11:48;;;;;;;4.60;0.90;;;;;;;-146.29;100.00;59205.81;5029857;28;20427;-68
2024/02/23 02:14:14;;;;;;;3.17;0.87;;;;;;;-146.29;100.00;59205.81;5032110;28;20327;-71
2024/02/23 02:16:40;;;;;;;3.63;0.80;;;;;;;-146.29;100.00;59205.81;5034567;28;20419;-69
2024/02/23 02:19:05;;;;;;;1.47;0.97;;;;;;;-146.29;100.00;59205.81;5024018;28;20430;-69
2024/02/23 02:21:32;;;;;;;1.67;0.90;;;;;;;-146.29;100.00;59205.81;5037144;28;20283;-69
2024/02/23 02:23:57;;;;;;;2.07;0.90;;;;;;;-146.29;100.00;59205.81;5032789;28;20673;-68
2024/02/23 02:26:22;;;;;;;4.67;0.83;;;;;;;-146.29;100.00;59205.81;5026397;28;20431;-69
2024/02/23 02:28:48;;;;;;;1.30;0.70;;;;;;;-146.29;100.00;59205.81;5032486;28;20194;-69
2024/02/23 02:31:13;;;;;;;2.13;0.80;;;;;;;-146.29;100.00;59205.81;5030788;28;20274;-70
2024/02/23 02:33:40;;;;;;;1.50;0.80;;;;;;;-146.29;100.00;59205.81;5034652;28;20298;-68
2024/02/23 02:36:06;;;;;;;2.50;0.80;;;;;;;-146.29;100.00;59205.81;5031617;28;20180;-68
2024/02/23 02:38:33;;;;;;;2.70;0.80;;;;;;;-146.29;100.00;59205.81;5030445;28;20435;-69
2024/02/23 02:41:00;;;;;;;1.10;0.63;;;;;;;-146.29;100.00;59205.81;5030513;28;20191;-70
2024/02/23 02:43:26;;;;;;;0.90;0.70;;;;;;;-146.29;100.00;59205.81;5029363;28;21230;-69
2024/02/23 02:45:51;;;;;;;1.00;0.70;;;;;;;-146.29;100.00;59205.81;5045233;28;20446;-69
2024/02/23 02:48:17;;;;;;;4.87;0.80;;;;;;;-146.29;100.00;59205.81;5036092;28;20479;-68
2024/02/23 02:50:42;;;;;;;3.23;1.00;;;;;;;-146.29;100.00;59205.81;5032323;28;20183;-70
2024/02/23 02:53:08;;;;;;;2.27;0.80;;;;;;;-146.29;100.00;59205.81;5031304;28;20281;-69
2024/02/23 02:55:33;;;;;;;1.73;0.60;;;;;;;-146.29;100.00;59205.81;5035499;28;20188;-70
2024/02/23 02:57:59;;;;;;;1.63;0.83;;;;;;;-146.29;100.00;59205.81;5037079;28;20183;-70
2024/02/23 03:00:24;;;;;;;2.30;0.80;;;;;;;-146.29;100.00;59205.81;5030009;28;20236;-70
2024/02/23 03:02:50;;;;;;;0.80;0.60;;;;;;;-146.29;100.00;59205.81;5032173;28;20649;-69
2024/02/23 03:05:15;;;;;;;2.60;0.70;;;;;;;-146.29;100.00;59205.81;5030053;28;20195;-69
2024/02/23 03:07:41;;;;;;;1.37;0.60;;;;;;;-146.29;100.00;59205.81;5029746;28;20211;-68
2024/02/23 03:10:07;;;;;;;1.73;0.70;;;;;;;-146.29;100.00;59205.81;5036978;28;20180;-70
2024/02/23 03:12:32;;;;;;;2.50;0.80;;;;;;;-146.29;100.00;59205.81;5029542;28;20676;-70
2024/02/23 03:14:58;;;;;;;3.80;0.80;;;;;;;-146.29;100.00;59205.81;5030908;28;20283;-69
2024/02/23 03:17:23;;;;;;;2.60;0.80;;;;;;;-146.29;100.00;59205.81;5029952;28;20183;-70
2024/02/23 03:19:50;;;;;;;1.83;0.80;;;;;;;-146.29;100.00;59205.81;5032943;28;20449;-69
2024/02/23 03:22:15;;;;;;;1.73;0.70;;;;;;;-146.29;100.00;59205.81;5031771;28;20199;-70
2024/02/23 03:24:41;;;;;;;3.67;0.87;;;;;;;-146.29;100.00;59205.81;5039523;28;20489;-69
2024/02/23 03:27:07;;;;;;;2.93;0.77;;;;;;;-146.29;100.00;59205.81;5042609;28;20176;-69
2024/02/23 03:29:32;;;;;;;1.47;0.70;;;;;;;-146.29;100.00;59205.81;5030630;28;20188;-70
2024/02/23 03:31:58;;;;;;;1.87;0.90;;;;;;;-146.29;100.00;59205.81;5028631;28;20571;-69
2024/02/23 03:34:24;;;;;;;2.00;0.90;;;;;;;-146.29;100.00;59205.81;5028833;28;20237;-69
2024/02/23 03:36:49;;;;;;;3.53;0.90;;;;;;;-146.29;100.00;59205.81;5037245;28;20203;-70
2024/02/23 03:39:15;;;;;;;2.03;0.93;;;;;;;-146.29;100.00;59205.81;5037438;28;20183;-70
2024/02/23 03:41:40;;;;;;;1.93;0.87;;;;;;;-146.29;100.00;59205.81;5028356;28;20188;-69
2024/02/23 03:44:06;;;;;;;1.57;0.93;;;;;;;-146.29;100.00;59205.81;5028655;28;20179;-70
2024/02/23 03:46:31;;;;;;;2.97;0.80;;;;;;;-146.29;100.00;59205.81;5030571;28;20220;-69
2024/02/23 03:48:57;;;;;;;1.93;0.80;;;;;;;-146.29;100.00;59205.81;5037962;28;20229;-70
2024/02/23 03:51:23;;;;;;;2.67;0.80;;;;;;;-146.29;100.00;59205.81;5010815;28;20188;-69
2024/02/23 03:53:49;;;;;;;5.27;1.00;;;;;;;-146.29;100.00;59205.81;5032212;28;21021;-71
2024/02/23 03:56:14;;;;;;;1.00;0.77;;;;;;;-146.29;100.00;59205.81;5033824;28;20279;-70
2024/02/23 03:58:39;;;;;;;3.20;1.13;;;;;;;-146.29;100.00;59205.81;5037748;28;20919;-69
2024/02/23 04:01:05;;;;;;;3.17;0.67;;;;;;;-146.29;100.00;59205.81;5028621;28;20665;-70
2024/02/23 04:03:30;;;;;;;5.50;0.80;;;;;;;-146.29;100.00;59205.81;5030405;28;20258;-70
2024/02/23 04:05:56;;;;;;;1.20;0.60;;;;;;;-146.29;100.00;59205.81;5031718;28;20175;-70
2024/02/23 04:08:21;;;;;;;4.23;0.90;;;;;;;-146.29;100.00;59205.81;5033204;28;20237;-69
2024/02/23 04:10:47;;;;;;;3.23;0.90;;;;;;;-146.29;100.00;59205.81;5030334;28;20686;-70
2024/02/23 04:13:13;;;;;;;4.43;0.70;;;;;;;-146.29;100.00;59205.81;5040057;28;20750;-70
2024/02/23 04:15:39;;;;;;;2.70;0.90;;;;;;;-146.29;100.00;59205.81;5030975;28;20590;-68
2024/02/23 04:18:05;;;;;;;1.53;0.70;;;;;;;-146.29;100.00;59205.81;5034926;28;20479;-69
2024/02/23 04:20:32;;;;;;;6.73;0.90;;;;;;;-146.29;100.00;59205.81;5037948;28;20418;-69
2024/02/23 04:22:57;;;;;;;3.83;0.70;;;;;;;-146.29;100.00;59205.81;5036181;28;20859;-70
2024/02/23 04:25:22;;;;;;;3.73;0.80;;;;;;;-146.29;100.00;59205.81;5034866;28;20422;-70
2024/02/23 04:27:48;;;;;;;3.37;1.00;;;;;;;-146.29;100.00;59205.81;5023329;28;20175;-71
2024/02/23 04:30:14;;;;;;;1.67;0.70;;;;;;;-146.29;100.00;59205.81;5018534;28;20233;-69
2024/02/23 04:32:39;;;;;;;1.60;0.80;;;;;;;-146.29;100.00;59205.81;5031140;28;20710;-69
2024/02/23 04:35:05;;;;;;;1.20;0.80;;;;;;;-146.29;100.00;59205.81;5020191;28;20310;-70
2024/02/23 04:37:30;;;;;;;1.00;0.60;;;;;;;-146.29;100.00;59205.81;5035892;28;20188;-69
2024/02/23 04:39:56;;;;;;;3.60;0.90;;;;;;;-146.29;100.00;59205.81;5034530;28;20183;-68
2024/02/23 04:42:21;;;;;;;2.07;1.00;;;;;;;-146.29;100.00;59205.81;5029690;28;20294;-69
2024/02/23 04:44:49;;;;;;;4.20;1.00;;;;;;;-146.29;100.00;59205.81;5034491;28;20191;-69
2024/02/23 04:47:14;;;;;;;1.83;0.70;;;;;;;-146.29;100.00;59205.81;5031874;28;20214;-69
2024/02/23 04:49:40;;;;;;;4.30;1.90;;;;;;;-146.29;100.00;59205.81;5032727;28;20480;-70
2024/02/23 04:52:05;;;;;;;3.13;1.10;;;;;;;-146.29;100.00;59205.81;5031525;28;20330;-70
2024/02/23 04:54:31;;;;;;;2.60;0.80;;;;;;;-146.29;100.00;59205.81;5031488;28;20261;-71
2024/02/23 04:56:56;;;;;;;5.13;0.90;;;;;;;-146.29;100.00;59205.81;5030940;28;20201;-69
2024/02/23 04:59:22;;;;;;;4.00;1.10;;;;;;;-146.29;100.00;59205.81;5031098;28;20275;-69
2024/02/23 05:01:47;;;;;;;2.00;0.60;;;;;;;-146.29;100.00;59205.81;5031019;28;20329;-69
2024/02/23 05:04:13;;;;;;;1.70;0.87;;;;;;;-146.29;100.00;59205.81;5031963;28;20195;-69
2024/02/23 05:06:38;;;;;;;2.90;1.57;;;;;;;-146.29;100.00;59205.81;5030318;28;20272;-68
2024/02/23 05:09:05;;;;;;;1.53;0.83;;;;;;;-146.29;100.00;59205.81;5036570;28;20309;-71
2024/02/23 05:11:30;;;;;;;4.13;0.80;;;;;;;-146.29;100.00;59205.81;5039934;28;20183;-68
2024/02/23 05:13:56;;;;;;;6.00;1.10;;;;;;;-146.29;100.00;59205.81;5040412;28;20557;-69
2024/02/23 05:16:21;;;;;;;1.87;0.83;;;;;;;-146.29;100.00;59205.81;5041267;28;20183;-67
2024/02/23 05:18:47;;;;;;;1.63;1.10;;;;;;;-146.29;100.00;59205.81;5034120;28;20192;-69
2024/02/23 05:21:14;;;;;;;4.60;0.70;;;;;;;-146.29;100.00;59205.81;5036517;28;20183;-69
2024/02/23 05:23:40;;;;;;;5.60;1.10;;;;;;;-146.29;100.00;59205.81;5037548;28;20328;-71
2024/02/23 05:26:05;;;;;;;3.73;0.83;;;;;;;-146.29;100.00;59205.81;5030775;28;20513;-70
2024/02/23 05:28:30;;;;;;;2.77;0.70;;;;;;;-146.29;100.00;59205.81;5030814;28;20214;-70
2024/02/23 05:30:56;;;;;;;2.47;0.83;;;;;;;-146.29;100.00;59205.81;5032650;28;20180;-70
2024/02/23 05:33:22;;;;;;;3.80;0.80;;;;;;;-146.29;100.00;59205.81;5036582;28;20330;-69
2024/02/23 05:35:50;;;;;;;5.23;1.00;;;;;;;-146.29;100.00;59205.81;5029024;28;20188;-69
2024/02/23 05:38:16;;;;;;;2.93;0.80;;;;;;;-146.29;100.00;59205.81;5030924;28;20190;-69
2024/02/23 05:40:42;;;;;;;4.87;1.00;;;;;;;-146.29;100.00;59205.81;5032131;28;20449;-68
2024/02/23 05:43:08;;;;;;;2.10;0.90;;;;;;;-146.29;100.00;59205.81;5029964;28;20454;-70
2024/02/23 05:45:33;;;;;;;4.43;0.80;;;;;;;-146.29;100.00;59205.81;5040485;28;20491;-68
2024/02/23 05:47:58;;;;;;;1.97;0.87;;;;;;;-146.29;100.00;59205.81;5037658;28;20194;-70
2024/02/23 05:50:24;;;;;;;4.00;2.40;;;;;;;-146.29;100.00;59205.81;5032373;28;20180;-70
2024/02/23 05:52:49;;;;;;;4.50;1.90;;;;;;;-146.29;100.00;59205.81;5029701;28;20218;-70
2024/02/23 05:55:15;;;;;;;3.10;1.10;;;;;;;-146.29;100.00;59205.81;5030399;28;20218;-71
2024/02/23 05:57:41;;;;;;;2.43;1.30;;;;;;;-146.29;100.00;59205.81;5037835;28;20195;-69
2024/02/23 06:00:07;;;;;;;3.87;1.40;;;;;;;-146.29;100.00;59205.81;5037494;28;20179;-69
2024/02/23 06:02:33;;;;;;;2.70;1.00;;;;;;;-146.29;100.00;59205.81;5030717;28;20202;-71
2024/02/23 06:04:58;;;;;;;3.23;1.07;;;;;;;-146.29;100.00;59205.81;5036188;28;20431;-70
2024/02/23 06:07:28;;;;;;;2.10;0.93;;;;;;;-146.29;100.00;59205.81;5034051;28;20280;-69
2024/02/23 06:09:57;;;;;;;1.70;0.80;;;;;;;-146.29;100.00;59205.81;5028553;28;20176;-70
2024/02/23 06:12:23;;;;;;;2.07;0.90;;;;;;;-146.29;100.00;59205.81;5036698;28;20836;-70
2024/02/23 06:14:49;;;;;;;1.50;0.90;;;;;;;-146.29;100.00;59205.81;5035370;28;20521;-72
2024/02/23 06:17:14;;;;;;;3.53;1.00;;;;;;;-146.29;100.00;59205.81;5041737;28;20437;-70
2024/02/23 06:19:39;;;;;;;3.67;0.93;;;;;;;-146.29;100.00;59205.81;5036345;28;20199;-69
2024/02/23 06:22:06;;;;;;;3.60;1.10;;;;;;;-146.29;100.00;59205.81;5031944;28;20234;-70
2024/02/23 06:24:31;;;;;;;1.80;0.97;;;;;;;-146.29;100.00;59205.81;5025037;28;20192;-69
2024/02/23 06:26:57;;;;;;;3.00;0.90;;;;;;;-146.29;100.00;59205.81;5044018;28;20938;-70
2024/02/23 06:29:23;;;;;;;1.30;1.10;;;;;;;-146.29;100.00;59205.81;5042200;28;20266;-69
2024/02/23 06:31:49;;;;;;;2.90;1.20;;;;;;;-146.29;100.00;59205.81;5041728;28;20493;-69
2024/02/23 06:34:15;;;;;;;1.80;1.00;;;;;;;-146.29;100.00;59205.81;5031031;28;20179;-69
2024/02/23 06:36:41;;;;;;;2.10;1.30;;;;;;;-146.29;100.00;59205.81;5045824;28;20421;-70
2024/02/23 06:39:06;;;;;;;1.50;1.07;;;;;;;-146.29;100.00;59205.81;5032858;28;21297;-71
2024/02/23 06:41:32;;;;;;;2.37;1.20;;;;;;;-146.29;100.00;59205.81;5036263;28;20183;-70
2024/02/23 06:43:57;;;;;;;2.73;1.43;;;;;;;-146.29;100.00;59205.81;5039878;28;20252;-69
2024/02/23 06:46:23;;;;;;;3.90;1.30;;;;;;;-146.29;100.00;59205.81;5030428;28;20184;-70
2024/02/23 06:48:48;;;;;;;5.23;2.07;;;;;;;-146.29;100.00;59205.81;5030108;28;20728;-70
2024/02/23 06:51:15;;;;;;;3.60;1.77;;;;;;;-146.29;100.00;59205.81;5037508;28;20606;-70
2024/02/23 06:53:41;;;;;;;3.57;2.07;;;;;;;-146.29;100.00;59205.81;5030567;28;20211;-69
2024/02/23 06:56:06;;;;;;;4.53;2.07;;;;;;;-146.29;100.00;59205.81;5030978;28;20435;-69
2024/02/23 06:58:32;;;;;;;5.03;1.60;;;;;;;-146.29;100.00;59205.81;5036545;28;20801;-68
2024/02/23 07:00:57;;;;;;;4.47;1.87;;;;;;;-146.29;100.00;59205.81;5032208;28;20207;-68
2024/02/23 07:03:23;;;;;;;7.33;1.73;;;;;;;-146.29;100.00;59205.81;5030189;28;20676;-68
2024/02/23 07:05:49;;;;;;;4.90;1.50;;;;;;;-146.29;100.00;59205.81;5031773;28;20548;-69
2024/02/23 07:08:15;;;;;;;7.03;1.73;;;;;;;-146.29;100.00;59205.81;5038182;28;20180;-69
2024/02/23 07:10:41;;;;;;;4.67;2.23;;;;;;;-146.29;100.00;59205.81;5034243;28;20423;-71
2024/02/23 07:13:07;;;;;;;4.27;1.23;;;;;;;-146.29;100.00;59205.81;5029330;28;20212;-69
2024/02/23 07:15:33;;;;;;;4.73;1.63;;;;;;;-146.29;100.00;59205.81;5028667;28;20195;-69
2024/02/23 07:17:58;;;;;;;2.43;1.43;;;;;;;-146.29;100.00;59205.81;5045832;28;20425;-69
2024/02/23 07:20:24;;;;;;;6.30;1.90;;;;;;;-146.29;100.00;59205.81;5039749;28;20558;-69
2024/02/23 07:22:49;;;;;;;3.73;1.93;;;;;;;-146.29;100.00;59205.81;5032590;28;20542;-69
2024/02/23 07:25:20;;;;;;;8.50;2.07;;;;;;;-146.29;100.00;59205.81;5040877;28;20636;-69
2024/02/23 07:27:46;;;;;;;5.37;1.97;;;;;;;-146.29;100.00;59205.81;5028460;28;20191;-69
2024/02/23 07:30:12;;;;;;;3.50;1.80;;;;;;;-146.29;100.00;59205.81;5029276;28;20963;-70
2024/02/23 07:32:37;;;;;;;1.73;1.30;;;;;;;-146.29;100.00;59205.81;5029409;28;20570;-69
2024/02/23 07:35:03;;;;;;;2.07;1.27;;;;;;;-146.29;100.00;59205.81;5037435;28;20440;-69
2024/02/23 07:37:29;;;;;;;1.97;1.10;;;;;;;-146.29;100.00;59205.81;5029175;28;20754;-69
2024/02/23 07:39:55;;;;;;;4.77;1.50;;;;;;;-146.29;100.00;59205.81;5029856;28;20422;-69
2024/02/23 07:42:20;;;;;;;4.20;1.53;;;;;;;-146.29;100.00;59205.81;5029338;28;20231;-69
2024/02/23 07:44:45;;;;;;;2.77;1.37;;;;;;;-146.29;100.00;59205.81;5028731;28;20250;-69
2024/02/23 07:47:12;;;;;;;3.20;1.23;;;;;;;-146.29;100.00;59205.81;5031556;28;20184;-69
2024/02/23 07:49:37;;;;;;;5.23;1.53;;;;;;;-146.29;100.00;59205.81;5031748;28;20180;-68
2024/02/23 07:52:03;;;;;;;3.53;1.40;;;;;;;-146.29;100.00;59205.81;5032970;28;20455;-71
2024/02/23 07:54:29;;;;;;;4.47;1.80;;;;;;;-146.29;100.00;59205.81;5040208;28;20198;-69
2024/02/23 07:56:54;;;;;;;11.50;1.30;;;;;;;-146.29;100.00;59205.81;5037354;28;20438;-71
2024/02/23 07:59:19;;;;;;;2.80;1.30;;;;;;;-146.29;100.00;59205.81;5037158;28;20180;-70
2024/02/23 08:01:46;;;;;;;2.47;1.50;;;;;;;-146.29;100.00;59205.81;5027288;28;20184;-70
2024/02/23 08:04:13;;;;;;;4.03;1.30;;;;;;;-146.29;100.00;59205.81;5037419;28;20175;-71
2024/02/23 08:06:39;;;;;;;3.00;1.43;;;;;;;-146.29;100.00;59205.81;5030264;28;20431;-69
2024/02/23 08:09:04;;;;;;;2.83;1.13;;;;;;;-146.29;100.00;59205.81;5028713;28;20423;-70
2024/02/23 08:11:30;;;;;;;5.73;1.33;;;;;;;-146.29;100.00;59205.81;5033478;28;20187;-70
2024/02/23 08:13:55;;;;;;;4.43;1.00;;;;;;;-146.29;100.00;59205.81;5028731;28;20330;-70
2024/02/23 08:16:20;;;;;;;1.37;0.97;;;;;;;-146.29;100.00;59205.81;5032134;28;20294;-69
2024/02/23 08:18:46;;;;;;;2.70;1.20;;;;;;;-146.29;100.00;59205.81;5033796;28;20652;-69
2024/02/23 08:21:12;;;;;;;3.43;1.20;;;;;;;-146.29;100.00;59205.81;5030880;28;20188;-70
2024/02/23 08:23:38;;;;;;;7.73;1.40;;;;;;;-146.29;100.00;59205.81;5036639;28;20434;-69
2024/02/23 08:26:03;;;;;;;5.33;1.70;;;;;;;-146.29;100.00;59205.81;5028560;28;20175;-69
2024/02/23 08:28:29;;;;;;;7.50;1.60;;;;;;;-146.29;100.00;59205.81;5029253;28;20258;-70
2024/02/23 08:30:54;;;;;;;5.10;2.13;;;;;;;-146.29;100.00;59205.81;5041189;28;20190;-69
2024/02/23 08:33:20;;;;;;;7.73;1.93;;;;;;;-146.29;100.00;59205.81;5028791;28;20246;-69
2024/02/23 08:35:48;;;;;;;3.10;1.40;;;;;;;-146.29;100.00;59205.81;5028043;28;20180;-70
2024/02/23 08:38:25;;;;;;;3.80;1.13;;;;;;;-146.29;100.00;59205.81;5038554;28;20195;-71
2024/02/23 08:40:51;;;;;;;1.77;1.30;;;;;;;-146.29;100.00;59205.81;5028812;28;20975;-70
2024/02/23 08:43:16;;;;;;;2.93;1.10;;;;;;;-146.29;100.00;59205.81;5037942;28;20492;-68
2024/02/23 08:45:42;;;;;;;3.43;1.20;;;;;;;-146.29;100.00;59205.81;5041777;28;20321;-69
2024/02/23 08:48:08;;;;;;;3.67;1.00;;;;;;;-146.29;100.00;59205.81;5038523;28;20188;-71
2024/02/23 08:50:34;;;;;;;5.00;1.60;;;;;;;-146.29;100.00;59205.81;5034104;28;20176;-73
2024/02/23 08:53:00;;;;;;;6.87;1.50;;;;;;;-146.29;100.00;59205.81;5040296;28;20489;-73
2024/02/23 08:55:28;;;;;;;1.40;0.83;;;;;;;-146.29;100.00;59205.81;5019007;28;20187;-73
2024/02/23 08:57:54;;;;;;;1.43;0.83;;;;;;;-146.29;100.00;59205.81;5040503;28;20422;-70
2024/02/23 09:00:24;;;;;;;1.77;1.00;;;;;;;-146.29;100.00;59205.81;5029866;28;20238;-72
2024/02/23 09:02:50;;;;;;;2.23;1.00;;;;;;;-146.29;100.00;59205.81;5046177;28;20438;-70
2024/02/23 09:05:15;;;;;;;3.00;0.90;;;;;;;-146.29;100.00;59205.81;5055082;28;20426;-73
2024/02/23 09:07:41;;;;;;;4.07;1.40;;;;;;;-146.29;100.00;59205.81;5044007;28;20428;-70
2024/02/23 09:10:07;;;;;;;3.00;1.00;;;;;;;-146.29;100.00;59205.81;5047706;28;20426;-74
2024/02/23 09:12:33;;;;;;;2.90;1.10;;;;;;;-146.29;100.00;59205.81;5030187;28;20681;-71
2024/02/23 09:14:58;;;;;;;2.90;0.90;;;;;;;-146.29;100.00;59205.81;5047050;28;20530;-71
2024/02/23 09:17:25;;;;;;;6.90;1.20;;;;;;;-146.29;100.00;59205.81;5037568;28;20259;-70
2024/02/23 09:19:51;;;;;;;1.73;1.10;;;;;;;-146.29;100.00;59205.81;5031332;28;20184;-72
2024/02/23 09:22:16;;;;;;;7.70;1.10;;;;;;;-146.29;100.00;59205.81;5029948;28;20939;-71
2024/02/23 09:24:42;;;;;;;6.83;1.67;;;;;;;-146.29;100.00;59205.81;5031483;28;20656;-72
2024/02/23 09:27:07;;;;;;;3.20;1.30;;;;;;;-146.29;100.00;59205.81;5014720;28;20186;-72
2024/02/23 09:29:33;;;;;;;2.37;0.90;;;;;;;-146.29;100.00;59205.81;5046542;28;20182;-72
2024/02/23 09:32:00;;;;;;;5.30;1.30;;;;;;;-146.29;100.00;59205.81;5038944;28;20539;-72
2024/02/23 09:34:25;;;;;;;4.53;1.10;;;;;;;-146.29;100.00;59205.81;5039643;28;20598;-73
2024/02/23 09:36:50;;;;;;;4.07;1.20;;;;;;;-146.29;100.00;59205.81;5032435;28;20464;-71
2024/02/23 09:39:16;;;;;;;4.17;1.23;;;;;;;-146.29;100.00;59205.81;5026070;28;20180;-72
2024/02/23 09:41:42;;;;;;;4.43;2.07;;;;;;;-146.29;100.00;59205.81;5035172;28;20183;-71
2024/02/23 09:44:09;;;;;;;4.80;1.07;;;;;;;-146.29;100.00;59205.81;5027010;28;20196;-72
2024/02/23 09:46:36;;;;;;;3.57;1.27;;;;;;;-146.29;100.00;59205.81;5042472;28;20425;-75
2024/02/23 09:49:03;;;;;;;8.13;1.30;;;;;;;-146.29;100.00;59205.81;5037857;28;20417;-72
2024/02/23 09:51:28;;;;;;;3.30;1.50;;;;;;;-146.29;100.00;59205.81;5034901;28;20436;-71
2024/02/23 09:53:54;;;;;;;3.97;1.00;;;;;;;-146.29;100.00;59205.81;5037845;28;20458;-72
2024/02/23 09:56:21;;;;;;;2.80;1.10;;;;;;;-146.29;100.00;59205.81;5036507;28;20172;-72
2024/02/23 09:58:47;;;;;;;4.80;1.23;;;;;;;-146.29;100.00;59205.81;5029688;28;20719;-72
2024/02/23 10:01:18;;;;;;;4.93;1.20;;;;;;;-146.29;100.00;59205.81;5031392;28;20434;-71
2024/02/23 10:03:45;;;;;;;4.83;1.10;;;;;;;-146.29;100.00;59205.81;5035030;28;20472;-72
2024/02/23 10:06:10;;;;;;;8.10;1.27;;;;;;;-146.29;100.00;59205.81;5034491;28;20481;-71
2024/02/23 10:08:35;;;;;;;6.50;1.17;;;;;;;-146.29;100.00;59205.81;5036894;28;20422;-71
2024/02/23 10:11:02;;;;;;;2.23;1.10;;;;;;;-146.29;100.00;59205.81;5031609;28;20187;-71
2024/02/23 10:13:29;;;;;;;6.90;1.50;;;;;;;-146.29;100.00;59205.81;5037290;28;20215;-71
2024/02/23 10:15:55;;;;;;;2.67;1.00;;;;;;;-146.29;100.00;59205.81;5034762;28;20424;-70
2024/02/23 10:18:20;;;;;;;4.20;1.47;;;;;;;-146.29;100.00;59205.81;5031185;28;20796;-71
2024/02/23 10:20:47;;;;;;;2.33;1.10;;;;;;;-146.29;100.00;59205.81;5046190;28;20176;-72
2024/02/23 10:23:13;;;;;;;4.70;1.20;;;;;;;-146.29;100.00;59205.81;5032419;28;20200;-72
2024/02/23 10:25:39;;;;;;;3.03;1.30;;;;;;;-146.29;100.00;59205.81;5043855;28;20977;-72
2024/02/23 10:28:06;;;;;;;8.90;1.20;;;;;;;-146.29;100.00;59205.81;5038021;28;20211;-72
2024/02/23 10:30:32;;;;;;;3.77;1.23;;;;;;;-146.29;100.00;59205.81;5030101;28;20414;-71
2024/02/23 10:32:57;;;;;;;8.50;1.53;;;;;;;-146.29;100.00;59205.81;5037328;28;20457;-72
2024/02/23 10:35:24;;;;;;;6.27;2.07;;;;;;;-146.29;100.00;59205.81;5039250;28;20531;-72
2024/02/23 10:37:51;;;;;;;5.60;1.60;;;;;;;-146.29;100.00;59205.81;5031374;28;20179;-72
2024/02/23 10:40:18;;;;;;;3.20;1.33;;;;;;;-146.29;100.00;59205.81;5031025;28;20485;-72
2024/02/23 10:42:47;;;;;;;4.17;1.23;;;;;;;-146.29;100.00;59205.81;5028381;28;20445;-73
2024/02/23 10:45:15;;;;;;;6.27;1.50;;;;;;;-146.29;100.00;59205.81;5038944;28;20421;-72
2024/02/23 10:47:41;;;;;;;2.83;1.10;;;;;;;-146.29;100.00;59205.81;5027253;28;20415;-70
2024/02/23 10:50:07;;;;;;;5.33;1.50;;;;;;;-146.29;100.00;59205.81;5039129;28;20529;-74
2024/02/23 10:52:33;;;;;;;6.13;1.37;;;;;;;-146.29;100.00;59205.81;5035342;28;20502;-71
2024/02/23 10:55:03;;;;;;;6.73;1.17;;;;;;;-146.29;100.00;59205.81;5019417;28;20176;-71
2024/02/23 10:57:28;;;;;;;2.97;1.07;;;;;;;-146.29;100.00;59205.81;5027339;28;20427;-73
2024/02/23 10:59:54;;;;;;;7.83;1.80;;;;;;;-146.29;100.00;59205.81;5028436;28;20581;-72
2024/02/23 11:02:20;;;;;;;3.67;1.10;;;;;;;-146.29;100.00;59205.81;5029723;28;20591;-72